createdAt,value
2023-05-05T00:00:39.698Z,10.10
2023-05-05T00:02:42.971Z,12.77
2023-05-05T00:04:45.995Z,11.38
2023-05-05T00:06:49.914Z,10.82
2023-05-05T00:08:52.447Z,12.27
2023-05-05T00:10:55.992Z,11.18
2023-05-05T00:12:58.590Z,10.18
2023-05-05T00:15:01.140Z,12.50
2023-05-05T00:17:04.166Z,12.93
2023-05-05T00:19:06.891Z,13.70
2023-05-05T00:21:09.467Z,9.23
2023-05-05T00:23:13.546Z,8.20
2023-05-05T00:25:16.341Z,8.98
2023-05-05T00:27:18.901Z,9.27
2023-05-05T00:29:21.563Z,10.65
2023-05-05T00:31:24.240Z,13.73
2023-05-05T00:33:26.910Z,7.22
2023-05-05T00:35:29.469Z,11.70
2023-05-05T00:37:32.063Z,9.60
2023-05-05T00:39:35.959Z,10.57
2023-05-05T00:41:38.552Z,11.48
2023-05-05T00:43:41.123Z,12.13
2023-05-05T00:45:47.525Z,11.05
2023-05-05T00:47:52.175Z,9.82
2023-05-05T00:49:54.831Z,8.32
2023-05-05T00:51:57.576Z,8.43
2023-05-05T00:54:00.400Z,10.55
2023-05-05T00:56:04.738Z,7.63
2023-05-05T00:58:07.897Z,9.32
2023-05-05T01:00:11.900Z,8.13
2023-05-05T01:02:14.490Z,9.85
2023-05-05T01:04:17.191Z,11.38
2023-05-05T01:06:37.225Z,13.20
2023-05-05T01:08:52.201Z,9.65
2023-05-05T01:11:02.269Z,9.50
2023-05-05T01:13:17.778Z,14.27
2023-05-05T01:15:31.433Z,9.93
2023-05-05T01:17:39.682Z,8.05
2023-05-05T01:19:55.416Z,10.60
2023-05-05T01:22:01.340Z,9.00
2023-05-05T01:24:21.612Z,12.80
2023-05-05T01:26:48.898Z,12.93
2023-05-05T01:29:07.357Z,11.38
2023-05-05T01:31:39.490Z,13.05
2023-05-05T01:35:53.277Z,13.20
2023-05-05T01:38:01.467Z,12.23
2023-05-05T01:40:08.155Z,9.48
2023-05-05T01:42:15.018Z,8.30
2023-05-05T01:44:18.775Z,8.98
2023-05-05T01:46:24.693Z,7.43
2023-05-05T01:48:29.856Z,7.57
2023-05-05T01:50:33.051Z,8.80
2023-05-05T01:52:38.523Z,7.97
2023-05-05T01:54:42.884Z,10.88
2023-05-05T01:56:47.205Z,9.45
2023-05-05T01:58:50.796Z,10.70
2023-05-05T02:00:55.352Z,10.85
2023-05-05T02:02:59.787Z,8.05
2023-05-05T02:05:05.560Z,11.27
2023-05-05T02:07:09.871Z,9.90
2023-05-05T02:09:15.077Z,8.55
2023-05-05T02:11:21.519Z,8.57
2023-05-05T02:13:25.743Z,10.13
2023-05-05T02:15:30.046Z,11.30
2023-05-05T02:17:35.816Z,15.32
2023-05-05T02:19:41.012Z,12.50
2023-05-05T02:21:44.967Z,13.07
2023-05-05T02:23:51.645Z,9.07
2023-05-05T02:25:56.799Z,6.80
2023-05-05T02:28:03.454Z,9.82
2023-05-05T02:30:11.149Z,9.82
2023-05-05T02:32:19.333Z,6.95
2023-05-05T02:34:25.918Z,10.98
2023-05-05T02:36:30.689Z,9.10
2023-05-05T02:38:35.183Z,10.98
2023-05-05T02:40:39.231Z,7.78
2023-05-05T02:42:44.116Z,7.10
2023-05-05T02:44:48.407Z,8.85
2023-05-05T02:46:51.936Z,9.93
2023-05-05T02:48:54.563Z,10.82
2023-05-05T02:50:57.195Z,8.43
2023-05-05T02:53:00.243Z,11.43
2023-05-05T02:55:05.345Z,7.45
2023-05-05T02:57:09.710Z,10.48
2023-05-05T02:59:16.831Z,9.00
2023-05-05T03:01:29.112Z,10.00
2023-05-05T03:03:40.936Z,7.60
2023-05-05T03:05:51.561Z,9.27
2023-05-05T03:08:03.112Z,9.30
2023-05-05T03:10:13.120Z,15.75
2023-05-05T03:12:21.165Z,11.70
2023-05-05T03:14:24.371Z,9.60
2023-05-05T03:16:28.981Z,10.20
2023-05-05T03:18:34.259Z,8.18
2023-05-05T03:20:37.699Z,9.00
2023-05-05T03:22:40.259Z,9.95
2023-05-05T03:24:42.839Z,10.90
2023-05-05T03:26:50.737Z,6.80
2023-05-05T03:28:53.334Z,7.68
2023-05-05T03:30:58.353Z,10.27
2023-05-05T03:33:01.060Z,9.60
2023-05-05T03:35:03.658Z,7.93
2023-05-05T03:37:06.302Z,13.65
2023-05-05T03:39:09.088Z,9.68
2023-05-05T03:41:11.648Z,7.55
2023-05-05T03:43:15.583Z,7.40
2023-05-05T03:45:18.322Z,9.00
2023-05-05T03:47:20.865Z,8.73
2023-05-05T03:49:23.436Z,8.02
2023-05-05T03:51:26.234Z,11.35
2023-05-05T03:53:28.786Z,12.45
2023-05-05T03:55:31.400Z,9.07
2023-05-05T03:57:34.296Z,10.77
2023-05-05T03:59:38.220Z,13.20
2023-05-05T04:01:40.852Z,12.48
2023-05-05T04:03:43.577Z,8.98
2023-05-05T04:05:46.230Z,9.32
2023-05-05T04:07:48.784Z,10.13
2023-05-05T04:09:51.739Z,13.98
2023-05-05T04:11:54.300Z,10.63
2023-05-05T04:13:56.860Z,12.60
2023-05-05T04:16:00.859Z,9.50
2023-05-05T04:18:03.600Z,11.23
2023-05-05T04:20:08.376Z,12.23
2023-05-05T04:22:11.411Z,11.25
2023-05-05T04:24:14.450Z,13.18
2023-05-05T04:26:17.017Z,10.80
2023-05-05T04:28:21.818Z,12.75
2023-05-05T04:30:24.800Z,9.32
2023-05-05T04:32:28.736Z,9.88
2023-05-05T04:34:31.306Z,11.35
2023-05-05T04:36:34.511Z,11.32
2023-05-05T04:38:37.130Z,8.13
2023-05-05T04:40:41.043Z,11.32
2023-05-05T04:42:43.610Z,10.60
2023-05-05T04:44:46.199Z,11.80
2023-05-05T04:46:48.838Z,10.80
2023-05-05T04:48:52.765Z,12.43
2023-05-05T04:50:55.392Z,8.57
2023-05-05T04:52:57.932Z,15.40
2023-05-05T04:55:01.125Z,8.50
2023-05-05T04:57:04.014Z,8.10
2023-05-05T04:59:06.767Z,11.60
2023-05-05T05:01:09.350Z,13.68
2023-05-05T05:03:12.109Z,8.05
2023-05-05T05:05:16.612Z,11.48
2023-05-05T05:07:19.262Z,13.00
2023-05-05T05:09:21.851Z,8.88
2023-05-05T05:11:24.489Z,11.75
2023-05-05T05:13:27.132Z,10.65
2023-05-05T05:15:29.723Z,12.13
2023-05-05T05:17:32.296Z,8.25
2023-05-05T05:19:34.879Z,8.20
2023-05-05T05:21:38.769Z,10.52
2023-05-05T05:23:41.365Z,6.60
2023-05-05T05:25:44.124Z,16.92
2023-05-05T05:27:50.163Z,11.18
2023-05-05T05:29:57.994Z,7.95
2023-05-05T05:32:00.602Z,7.60
2023-05-05T05:34:03.224Z,10.55
2023-05-05T05:36:06.663Z,11.23
2023-05-05T05:38:10.546Z,11.70
2023-05-05T05:40:13.913Z,10.95
2023-05-05T05:42:16.512Z,6.35
2023-05-05T05:44:19.098Z,7.75
2023-05-05T05:46:21.782Z,9.65
2023-05-05T05:48:28.349Z,8.95
2023-05-05T05:50:30.948Z,7.32
2023-05-05T05:52:33.559Z,6.97
2023-05-05T05:54:37.510Z,7.28
2023-05-05T05:56:40.087Z,7.03
2023-05-05T05:58:42.664Z,9.88
2023-05-05T06:00:45.216Z,11.07
2023-05-05T06:02:47.922Z,8.90
2023-05-05T06:04:50.630Z,10.73
2023-05-05T06:06:53.190Z,8.10
2023-05-05T06:08:55.735Z,8.20
2023-05-05T06:11:00.499Z,10.15
2023-05-05T06:13:03.171Z,9.65
2023-05-05T06:15:06.726Z,7.68
2023-05-05T06:17:09.738Z,5.68
2023-05-05T06:19:12.329Z,6.10
2023-05-05T06:21:14.980Z,7.28
2023-05-05T06:23:17.591Z,11.80
2023-05-05T06:25:20.196Z,8.82
2023-05-05T06:27:24.091Z,10.77
2023-05-05T06:29:26.940Z,8.18
2023-05-05T06:31:29.628Z,11.30
2023-05-05T06:33:32.223Z,6.97
2023-05-05T06:35:34.852Z,10.18
2023-05-05T06:37:37.417Z,4.78
2023-05-05T06:39:39.964Z,7.10
2023-05-05T06:41:42.519Z,6.65
2023-05-05T06:43:46.919Z,8.20
2023-05-05T06:45:49.480Z,7.22
2023-05-05T06:47:52.453Z,7.28
2023-05-05T06:49:55.092Z,8.77
2023-05-05T06:51:57.740Z,8.73
2023-05-05T06:54:00.303Z,9.45
2023-05-05T06:56:02.854Z,5.55
2023-05-05T06:58:05.459Z,7.65
2023-05-05T07:00:11.432Z,5.00
2023-05-05T07:02:14.055Z,11.07
2023-05-05T07:04:16.633Z,8.38
2023-05-05T07:06:19.296Z,4.25
2023-05-05T07:08:21.861Z,7.72
2023-05-05T07:10:25.238Z,9.23
2023-05-05T07:12:30.938Z,7.90
2023-05-05T07:14:33.525Z,5.43
2023-05-05T07:16:37.557Z,8.00
2023-05-05T07:18:42.314Z,11.73
2023-05-05T07:20:45.131Z,6.55
2023-05-05T07:22:47.694Z,6.82
2023-05-05T07:24:53.121Z,7.60
2023-05-05T07:26:55.846Z,5.55
2023-05-05T07:28:59.026Z,5.38
2023-05-05T07:31:02.056Z,5.80
2023-05-05T07:33:06.082Z,6.57
2023-05-05T07:35:09.240Z,13.43
2023-05-05T07:37:11.778Z,6.68
2023-05-05T07:39:15.328Z,3.38
2023-05-05T07:41:18.473Z,5.97
2023-05-05T07:43:21.056Z,9.70
2023-05-05T07:45:23.629Z,3.97
2023-05-05T07:47:26.301Z,6.65
2023-05-05T07:49:30.203Z,7.63
2023-05-05T07:51:34.634Z,6.32
2023-05-05T07:53:37.927Z,6.65
2023-05-05T07:55:40.563Z,5.10
2023-05-05T07:57:43.153Z,7.65
2023-05-05T07:59:45.701Z,4.78
2023-05-05T08:01:48.312Z,7.63
2023-05-05T08:03:51.296Z,5.22
2023-05-05T08:05:56.425Z,5.85
2023-05-05T08:07:59.083Z,5.05
2023-05-05T08:10:01.672Z,10.43
2023-05-05T08:12:04.573Z,6.63
2023-05-05T08:14:08.559Z,8.50
2023-05-05T08:16:11.199Z,5.95
2023-05-05T08:18:13.842Z,6.70
2023-05-05T08:20:16.871Z,8.75
2023-05-05T08:22:22.245Z,5.85
2023-05-05T08:24:24.914Z,6.18
2023-05-05T08:26:27.514Z,4.82
2023-05-05T08:28:30.874Z,5.43
2023-05-05T08:30:33.792Z,7.35
2023-05-05T08:32:36.480Z,9.65
2023-05-05T08:34:39.031Z,9.77
2023-05-05T08:36:41.606Z,8.35
2023-05-05T08:38:46.310Z,6.15
2023-05-05T08:40:50.087Z,9.15
2023-05-05T08:42:52.660Z,5.75
2023-05-05T08:44:56.040Z,8.52
2023-05-05T08:47:01.623Z,4.82
2023-05-05T08:49:06.965Z,6.88
2023-05-05T08:51:10.663Z,8.15
2023-05-05T08:53:18.501Z,9.00
2023-05-05T08:55:25.381Z,8.35
2023-05-05T08:57:36.184Z,5.97
2023-05-05T08:59:39.636Z,8.10
2023-05-05T09:01:43.021Z,4.78
2023-05-05T09:03:46.364Z,6.40
2023-05-05T09:05:49.516Z,6.70
2023-05-05T09:07:52.183Z,11.00
2023-05-05T09:09:54.801Z,6.18
2023-05-05T09:12:00.101Z,6.20
2023-05-05T09:14:02.763Z,7.85
2023-05-05T09:16:05.693Z,5.55
2023-05-05T09:18:11.893Z,4.43
2023-05-05T09:20:15.657Z,3.75
2023-05-05T09:22:18.444Z,7.57
2023-05-05T09:24:21.280Z,6.90
2023-05-05T09:26:24.459Z,3.28
2023-05-05T09:28:31.398Z,5.80
2023-05-05T09:30:35.730Z,5.45
2023-05-05T09:32:46.373Z,10.20
2023-05-05T09:34:58.828Z,4.80
2023-05-05T09:37:01.604Z,4.80
2023-05-05T09:39:06.222Z,5.20
2023-05-05T09:41:08.802Z,7.78
2023-05-05T09:43:14.258Z,4.75
2023-05-05T09:45:27.860Z,8.35
2023-05-05T09:47:37.078Z,7.03
2023-05-05T09:49:39.927Z,5.88
2023-05-05T09:51:42.673Z,7.95
2023-05-05T09:53:47.480Z,10.68
2023-05-05T09:55:53.984Z,4.93
2023-05-05T09:57:56.747Z,7.00
2023-05-05T10:00:00.708Z,6.00
2023-05-05T10:02:14.549Z,6.22
2023-05-05T10:04:28.025Z,6.07
2023-05-05T10:06:47.075Z,6.05
2023-05-05T10:09:01.743Z,7.07
2023-05-05T10:11:06.905Z,5.53
2023-05-05T10:13:12.209Z,5.60
2023-05-05T10:15:16.737Z,5.78
2023-05-05T10:17:23.323Z,5.47
2023-05-05T10:19:27.388Z,7.70
2023-05-05T10:21:34.645Z,5.43
2023-05-05T10:23:50.671Z,7.05
2023-05-05T10:26:00.016Z,5.97
2023-05-05T10:28:07.216Z,3.78
2023-05-05T10:30:16.939Z,4.68
2023-05-05T10:32:53.552Z,3.70
2023-05-05T10:34:54.347Z,4.15
2023-05-05T10:37:00.183Z,4.30
2023-05-05T10:39:04.013Z,5.38
2023-05-05T10:41:07.615Z,4.75
2023-05-05T10:43:10.509Z,4.63
2023-05-05T10:45:13.110Z,5.32
2023-05-05T10:47:16.187Z,8.15
2023-05-05T10:49:29.455Z,6.10
2023-05-05T10:51:41.494Z,5.20
2023-05-05T10:53:54.408Z,6.07
2023-05-05T10:56:04.502Z,3.97
2023-05-05T10:58:07.109Z,5.63
2023-05-05T11:00:10.896Z,8.30
2023-05-05T11:02:25.080Z,6.93
2023-05-05T11:04:29.056Z,8.32
2023-05-05T11:06:32.772Z,10.10
2023-05-05T11:08:35.983Z,6.53
2023-05-05T11:10:45.616Z,3.55
2023-05-05T11:13:22.892Z,3.50
2023-05-05T11:15:37.366Z,4.43
2023-05-05T11:17:46.563Z,7.03
2023-05-05T11:19:52.211Z,3.53
2023-05-05T11:22:01.499Z,5.72
2023-05-05T11:24:29.280Z,3.92
2023-05-05T11:26:52.404Z,5.47
2023-05-05T11:28:57.629Z,3.28
2023-05-05T11:31:20.126Z,2.60
2023-05-05T11:33:26.877Z,4.65
2023-05-05T11:35:57.772Z,3.63
2023-05-05T11:38:04.562Z,2.67
2023-05-05T11:40:21.535Z,2.65
2023-05-05T11:42:26.399Z,5.57
2023-05-05T11:44:33.251Z,3.83
2023-05-05T11:46:35.969Z,3.88
2023-05-05T11:48:45.768Z,2.60
2023-05-05T11:50:49.507Z,5.05
2023-05-05T11:52:53.431Z,3.67
2023-05-05T11:55:01.553Z,4.65
2023-05-05T11:57:07.212Z,2.85
2023-05-05T11:59:11.181Z,4.47
2023-05-05T12:01:14.151Z,3.15
2023-05-05T12:03:16.820Z,2.78
2023-05-05T12:05:22.346Z,5.10
2023-05-05T12:07:26.902Z,5.22
2023-05-05T12:09:30.881Z,4.20
2023-05-05T12:11:33.752Z,3.60
2023-05-05T12:13:36.353Z,9.02
2023-05-05T12:15:38.973Z,4.25
2023-05-05T12:17:45.740Z,5.65
2023-05-05T12:19:49.729Z,3.58
2023-05-05T12:21:54.152Z,3.33
2023-05-05T12:23:56.917Z,3.65
2023-05-05T12:26:00.817Z,2.75
2023-05-05T12:28:03.445Z,3.22
2023-05-05T12:30:13.063Z,4.40
2023-05-05T12:32:23.563Z,3.33
2023-05-05T12:34:26.354Z,4.20
2023-05-05T12:36:30.554Z,3.60
2023-05-05T12:38:33.293Z,1.77
2023-05-05T12:40:46.711Z,6.57
2023-05-05T12:42:51.997Z,2.85
2023-05-05T12:44:54.603Z,3.90
2023-05-05T12:46:59.126Z,3.35
2023-05-05T12:49:04.952Z,3.83
2023-05-05T12:51:12.481Z,3.42
2023-05-05T12:53:21.871Z,5.50
2023-05-05T12:55:36.653Z,2.97
2023-05-05T12:57:39.629Z,4.78
2023-05-05T12:59:43.650Z,4.20
2023-05-05T13:01:50.969Z,3.10
2023-05-05T13:04:06.798Z,4.05
2023-05-05T13:06:20.499Z,8.90
2023-05-05T13:08:23.054Z,4.97
2023-05-05T13:10:26.962Z,4.22
2023-05-05T13:12:29.526Z,3.85
2023-05-05T13:14:33.003Z,4.25
2023-05-05T13:16:36.966Z,4.18
2023-05-05T13:18:46.089Z,5.15
2023-05-05T13:20:48.696Z,3.72
2023-05-05T13:22:51.367Z,2.35
2023-05-05T13:24:53.938Z,3.50
2023-05-05T13:26:57.115Z,2.47
2023-05-05T13:28:59.681Z,3.50
2023-05-05T13:31:02.244Z,1.92
2023-05-05T13:33:06.315Z,5.32
2023-05-05T13:35:14.761Z,4.00
2023-05-05T13:37:18.874Z,4.07
2023-05-05T13:39:21.486Z,3.10
2023-05-05T13:41:24.121Z,4.15
2023-05-05T13:43:26.761Z,2.67
2023-05-05T13:45:29.587Z,4.53
2023-05-05T13:47:32.137Z,5.35
2023-05-05T13:49:36.512Z,2.03
2023-05-05T13:51:39.303Z,3.58
2023-05-05T13:53:43.866Z,3.30
2023-05-05T13:55:46.454Z,3.55
2023-05-05T13:57:49.042Z,3.38
2023-05-05T13:59:51.599Z,3.80
2023-05-05T14:01:54.169Z,7.07
2023-05-05T14:03:57.591Z,3.72
2023-05-05T14:06:01.732Z,3.13
2023-05-05T14:08:04.395Z,2.78
2023-05-05T14:10:08.287Z,5.22
2023-05-05T14:12:10.876Z,5.57
2023-05-05T14:14:13.424Z,2.47
2023-05-05T14:16:16.252Z,3.08
2023-05-05T14:18:18.843Z,3.53
2023-05-05T14:20:21.560Z,4.00
2023-05-05T14:22:25.503Z,2.72
2023-05-05T14:24:28.168Z,5.38
2023-05-05T14:26:30.725Z,4.43
2023-05-05T14:28:33.279Z,2.95
2023-05-05T14:30:35.804Z,3.53
2023-05-05T14:32:38.418Z,3.28
2023-05-05T14:34:41.481Z,4.93
2023-05-05T14:36:44.056Z,4.78
2023-05-05T14:38:47.988Z,2.47
2023-05-05T14:40:50.727Z,4.78
2023-05-05T14:42:53.275Z,2.97
2023-05-05T14:44:55.830Z,5.05
2023-05-05T14:46:58.600Z,2.28
2023-05-05T14:49:01.239Z,3.00
2023-05-05T14:51:04.630Z,5.78
2023-05-05T14:53:07.197Z,4.85
2023-05-05T14:55:11.680Z,4.10
2023-05-05T14:57:14.343Z,4.32
2023-05-05T14:59:16.903Z,2.58
2023-05-05T15:01:20.589Z,3.20
2023-05-05T15:03:23.328Z,4.10
2023-05-05T15:05:25.925Z,7.22
2023-05-05T15:07:29.151Z,6.28
2023-05-05T15:09:31.708Z,9.32
2023-05-05T15:11:35.610Z,8.25
2023-05-05T15:13:40.152Z,4.53
2023-05-05T15:15:42.738Z,4.38
2023-05-05T15:17:45.409Z,3.97
2023-05-05T15:19:48.030Z,3.45
2023-05-05T15:21:53.472Z,4.28
2023-05-05T15:23:56.023Z,4.97
2023-05-05T15:25:58.576Z,3.22
2023-05-05T15:28:02.572Z,4.93
2023-05-05T15:30:06.507Z,2.33
2023-05-05T15:32:09.053Z,8.30
2023-05-05T15:34:11.614Z,2.90
2023-05-05T15:36:14.166Z,4.13
2023-05-05T15:38:16.845Z,3.05
2023-05-05T15:40:19.537Z,6.05
2023-05-05T15:42:22.220Z,4.13
2023-05-05T15:44:26.110Z,3.80
2023-05-05T15:46:28.700Z,7.68
2023-05-05T15:48:31.258Z,4.40
2023-05-05T15:50:33.860Z,4.40
2023-05-05T15:52:36.517Z,4.25
2023-05-05T15:54:39.114Z,7.47
2023-05-05T15:56:41.706Z,4.50
2023-05-05T15:58:44.296Z,5.95
2023-05-05T16:00:48.348Z,7.22
2023-05-05T16:02:51.155Z,4.47
2023-05-05T16:04:54.016Z,7.50
2023-05-05T16:06:57.990Z,7.07
2023-05-05T16:09:00.641Z,11.07
2023-05-05T16:11:03.398Z,7.45
2023-05-05T16:13:06.062Z,5.93
2023-05-05T16:15:09.973Z,6.72
2023-05-05T16:17:14.164Z,10.18
2023-05-05T16:19:18.102Z,6.05
2023-05-05T16:21:20.829Z,5.97
2023-05-05T16:23:24.078Z,13.73
2023-05-05T16:25:26.693Z,8.85
2023-05-05T16:27:29.312Z,11.68
2023-05-05T16:29:31.897Z,23.15
2023-05-05T16:31:34.798Z,6.28
2023-05-05T16:33:40.853Z,8.10
2023-05-05T16:35:44.789Z,7.53
2023-05-05T16:37:47.483Z,10.65
2023-05-05T16:39:50.151Z,10.00
2023-05-05T16:41:52.720Z,6.32
2023-05-05T16:43:55.376Z,11.20
2023-05-05T16:45:57.963Z,5.45
2023-05-05T16:48:00.655Z,12.82
2023-05-05T16:50:05.053Z,13.40
2023-05-05T16:52:07.629Z,8.85
2023-05-05T16:54:10.203Z,13.77
2023-05-05T16:56:13.501Z,10.38
2023-05-05T16:58:16.067Z,9.10
2023-05-05T17:00:19.036Z,9.50
2023-05-05T17:02:21.645Z,14.35
2023-05-05T17:04:24.258Z,10.35
2023-05-05T17:06:28.259Z,9.43
2023-05-05T17:08:30.813Z,13.88
2023-05-05T17:10:33.348Z,9.43
2023-05-05T17:12:35.986Z,11.70
2023-05-05T17:14:38.578Z,9.18
2023-05-05T17:16:41.384Z,10.20
2023-05-05T17:18:44.089Z,10.63
2023-05-05T17:20:46.625Z,13.38
2023-05-05T17:22:50.949Z,14.55
2023-05-05T17:24:53.496Z,12.98
2023-05-05T17:26:56.887Z,10.57
2023-05-05T17:28:59.441Z,8.65
2023-05-05T17:31:02.012Z,9.95
2023-05-05T17:33:04.744Z,10.98
2023-05-05T17:35:10.641Z,10.98
2023-05-05T17:37:13.458Z,8.85
2023-05-05T17:39:17.376Z,9.15
2023-05-05T17:41:20.099Z,7.43
2023-05-05T17:43:22.658Z,10.68
2023-05-05T17:45:25.255Z,11.20
2023-05-05T17:47:27.981Z,6.97
2023-05-05T17:49:30.777Z,10.60
2023-05-05T17:51:33.390Z,8.75
2023-05-05T17:53:35.984Z,8.57
2023-05-05T17:55:39.906Z,9.98
2023-05-05T17:57:42.730Z,6.00
2023-05-05T17:59:45.907Z,10.00
2023-05-05T18:01:48.552Z,9.10
2023-05-05T18:03:51.259Z,12.32
2023-05-05T18:05:53.894Z,11.65
2023-05-05T18:07:57.410Z,10.57
2023-05-05T18:10:00.180Z,9.82
2023-05-05T18:12:04.577Z,12.27
2023-05-05T18:14:07.123Z,10.23
2023-05-05T18:16:09.819Z,9.45
2023-05-05T18:18:12.414Z,11.55
2023-05-05T18:20:15.013Z,9.30
2023-05-05T18:22:17.680Z,8.68
2023-05-05T18:24:20.763Z,11.50
2023-05-05T18:26:23.458Z,10.07
2023-05-05T18:28:27.418Z,10.82
2023-05-05T18:30:30.068Z,8.15
2023-05-05T18:32:32.653Z,8.10
2023-05-05T18:34:35.324Z,9.25
2023-05-05T18:36:37.927Z,8.93
2023-05-05T18:38:40.585Z,10.38
2023-05-05T18:40:43.140Z,7.90
2023-05-05T18:42:47.854Z,13.93
2023-05-05T18:44:51.774Z,10.80
2023-05-05T18:46:54.332Z,7.28
2023-05-05T18:48:56.935Z,6.30
2023-05-05T18:51:01.989Z,8.40
2023-05-05T18:53:04.599Z,8.38
2023-05-05T18:55:07.404Z,9.82
2023-05-05T18:57:10.126Z,9.60
2023-05-05T18:59:12.790Z,7.63
2023-05-05T19:01:17.060Z,8.30
2023-05-05T19:03:20.669Z,10.38
2023-05-05T19:05:23.385Z,8.00
2023-05-05T19:07:34.948Z,10.30
2023-05-05T19:09:38.335Z,18.13
2023-05-05T19:11:41.916Z,11.25
2023-05-05T19:13:45.376Z,12.48
2023-05-05T19:15:47.931Z,9.40
2023-05-05T19:17:52.144Z,9.50
2023-05-05T19:19:54.802Z,10.10
2023-05-05T19:21:58.042Z,6.43
2023-05-05T19:24:00.608Z,7.82
2023-05-05T19:26:03.737Z,10.95
2023-05-05T19:28:06.695Z,5.15
2023-05-05T19:30:10.790Z,5.05
2023-05-05T19:32:13.470Z,7.60
2023-05-05T19:34:17.469Z,6.43
2023-05-05T19:36:20.078Z,8.48
2023-05-05T19:38:22.623Z,6.30
2023-05-05T19:40:25.362Z,8.63
2023-05-05T19:42:28.598Z,14.27
2023-05-05T19:44:31.146Z,7.95
2023-05-05T19:46:34.474Z,7.57
2023-05-05T19:48:37.083Z,11.50
2023-05-05T19:50:41.079Z,10.77
2023-05-05T19:52:43.759Z,6.45
2023-05-05T19:54:46.612Z,9.02
2023-05-05T19:56:49.170Z,6.70
2023-05-05T19:58:57.306Z,4.35
2023-05-05T20:00:59.925Z,4.63
2023-05-05T20:03:02.618Z,11.90
2023-05-05T20:05:05.798Z,5.00
2023-05-05T20:07:09.789Z,6.85
2023-05-05T20:09:12.408Z,6.43
2023-05-05T20:11:16.190Z,6.95
2023-05-05T20:13:18.759Z,9.02
2023-05-05T20:15:22.208Z,6.47
2023-05-05T20:17:25.702Z,7.68
2023-05-05T20:19:28.261Z,9.88
2023-05-05T20:21:31.023Z,9.75
2023-05-05T20:23:34.965Z,8.38
2023-05-05T20:25:37.593Z,8.27
2023-05-05T20:27:40.194Z,8.93
2023-05-05T20:29:42.874Z,6.80
2023-05-05T20:31:45.502Z,8.63
2023-05-05T20:33:48.127Z,12.52
2023-05-05T20:35:50.694Z,15.75
2023-05-05T20:37:53.229Z,8.90
2023-05-05T20:39:58.221Z,8.38
2023-05-05T20:42:01.185Z,14.23
2023-05-05T20:44:03.780Z,9.77
2023-05-05T20:46:07.122Z,10.45
2023-05-05T20:48:11.323Z,15.45
2023-05-05T20:50:14.487Z,18.00
2023-05-05T20:52:17.058Z,13.05
2023-05-05T20:54:19.764Z,18.20
2023-05-05T20:56:23.856Z,19.42
2023-05-05T20:58:26.527Z,10.75
2023-05-05T21:00:29.119Z,11.05
2023-05-05T21:02:32.466Z,9.57
2023-05-05T21:04:35.092Z,10.75
2023-05-05T21:08:40.885Z,12.27
2023-05-05T21:10:46.390Z,9.32
2023-05-05T21:12:50.337Z,12.68
2023-05-05T21:14:53.446Z,12.27
2023-05-05T21:16:58.544Z,8.93
2023-05-05T21:19:01.110Z,9.93
2023-05-05T21:21:03.688Z,11.75
2023-05-05T21:23:06.283Z,8.50
2023-05-05T21:25:14.178Z,10.85
2023-05-05T21:27:17.213Z,9.25
2023-05-05T21:29:21.285Z,11.18
2023-05-05T21:31:23.841Z,7.80
2023-05-05T21:33:27.282Z,11.65
2023-05-05T21:35:29.827Z,14.90
2023-05-05T21:37:32.460Z,8.90
2023-05-05T21:39:35.374Z,9.50
2023-05-05T21:41:37.926Z,11.05
2023-05-05T21:43:40.508Z,7.00
2023-05-05T21:45:44.385Z,9.27
2023-05-05T21:47:47.003Z,12.25
2023-05-05T21:49:49.597Z,8.65
2023-05-05T21:51:52.205Z,6.88
2023-05-05T21:53:54.796Z,10.73
2023-05-05T21:55:57.381Z,7.05
2023-05-05T21:57:59.923Z,8.48
2023-05-05T22:00:02.731Z,8.85
2023-05-05T22:02:06.698Z,13.68
2023-05-05T22:04:09.314Z,6.05
2023-05-05T22:06:12.354Z,8.75
2023-05-05T22:08:15.000Z,10.73
2023-05-05T22:10:17.662Z,7.28
2023-05-05T22:12:20.212Z,8.40
2023-05-05T22:14:22.770Z,9.18
2023-05-05T22:16:25.402Z,7.40
2023-05-05T22:18:29.434Z,10.32
2023-05-05T22:20:32.161Z,9.00
2023-05-05T22:22:34.795Z,7.28
2023-05-05T22:24:37.333Z,9.55
2023-05-05T22:26:43.154Z,10.63
2023-05-05T22:28:46.173Z,12.50
2023-05-05T22:30:48.856Z,8.32
2023-05-05T22:32:51.481Z,15.48
2023-05-05T22:34:55.469Z,13.35
2023-05-05T22:36:58.793Z,10.57
2023-05-05T22:39:01.373Z,10.80
2023-05-05T22:41:03.955Z,11.20
2023-05-05T22:43:06.535Z,7.55
2023-05-05T22:45:10.376Z,7.60
2023-05-05T22:47:13.229Z,10.75
2023-05-05T22:49:15.922Z,6.70
2023-05-05T22:51:19.865Z,12.00
2023-05-05T22:53:22.408Z,9.30
2023-05-05T22:55:24.991Z,7.75
2023-05-05T22:57:27.616Z,7.82
2023-05-05T22:59:30.226Z,10.93
2023-05-05T23:01:34.121Z,8.85
2023-05-05T23:03:36.744Z,8.52
2023-05-05T23:05:39.327Z,10.05
2023-05-05T23:07:43.239Z,11.07
2023-05-05T23:09:46.714Z,9.07
2023-05-05T23:11:49.307Z,8.05
2023-05-05T23:13:51.871Z,8.45
2023-05-05T23:15:54.424Z,9.73
2023-05-05T23:17:57.029Z,10.52
2023-05-05T23:19:59.671Z,9.25
2023-05-05T23:22:02.756Z,11.13
2023-05-05T23:24:07.316Z,10.57
2023-05-05T23:26:09.878Z,10.95
2023-05-05T23:28:12.454Z,7.75
2023-05-05T23:30:15.431Z,11.52
2023-05-05T23:32:17.999Z,7.18
2023-05-05T23:34:20.685Z,14.48
2023-05-05T23:36:23.234Z,6.53
2023-05-05T23:38:26.032Z,8.65
2023-05-05T23:40:29.988Z,7.95
2023-05-05T23:42:32.586Z,7.28
2023-05-05T23:44:35.162Z,9.80
2023-05-05T23:46:37.774Z,10.52
2023-05-05T23:48:40.365Z,11.40
2023-05-05T23:50:43.259Z,12.07
2023-05-05T23:52:46.111Z,9.13
2023-05-05T23:54:48.684Z,8.38
2023-05-05T23:56:52.597Z,8.30
2023-05-05T23:58:55.213Z,10.32
